KABI/ABI METAR and TAF weather

Enter ICAO airport designator
Station Type Date Time Source
KABI METAR 2019/04/25 15:52 UTC NOAA

KABI 251552Z 30010KT 10SM CLR 22/14 A2992 RMK AO2 SLP114 T02170144


Station Type Date Time Source
KABI Decoded METAR 2019/04/25 15:52 UTC NOAA

ABILENE REGIONAL AIRPORT, TX, United States (KABI) 32-25N 099-41W 548M
Apr 25, 2019 - 11:52 AM EDT / 2019.04.25 1552 UTC
Wind: from the WNW (300 degrees) at 12 MPH (10 KT):0
Visibility: 10 mile(s):0
Sky conditions: clear
Temperature: 71.1 F (21.7 C)
Dew Point: 57.9 F (14.4 C)
Relative Humidity: 63%
Pressure (altimeter): 29.92 in. Hg (1013 hPa)
ob: KABI 251552Z 30010KT 10SM CLR 22/14 A2992 RMK AO2 SLP114 T02170144
cycle: 16

Station Type Date Time Source
KABI TAF 2019/04/25 12:22 UTC NOAA

TAF KABI 251120Z 2512/2612 26008KT P6SM SKC
FM251900 34011G17KT P6SM SKC
FM260000 04008KT P6SM SKC

Example: see airport list